Flight Track Log - Related Links

Times and Time Zones

All times are in EDT time to prevent confusion due to time zone crossing. See the SWA378 flight status page for this flight to view local times or setup timezone preferences in your user account.

Time Position Orientation Groundspeed Altitude Reporting Facility
EDT Latitude Longitude Course Direction KTS MPH feet Rate Location/Type
Thu 06:34:28 PM 33.6333 -84.4833 239° Southwest 182 209 2,900  Level Atlanta TRACON
Thu 06:35:34 PM 33.6000 -84.5500 239° Southwest 261 300 6,200 2,229 Climbing Atlanta TRACON
Thu 06:37:58 PM 33.4531 -84.5019 165° South 271 312 10,700 2,147 Climbing Atlanta Center
Thu 06:38:58 PM 33.4556 -84.3750 89° East 305 351 13,500 2,950 Climbing Atlanta Center
Thu 06:39:58 PM 33.4686 -84.2406 83° East 371 427 16,600 3,000 Climbing Atlanta Center
Thu 06:40:58 PM 33.5208 -84.1211 62° Northeast 376 433 19,500 2,750 Climbing Atlanta Center
Thu 06:41:58 PM 33.5750 -83.9939 63° Northeast 401 461 22,100 2,350 Climbing Atlanta Center
Thu 06:42:58 PM 33.6167 -83.8567 70° East 424 488 24,200 2,000 Climbing Atlanta Center
Thu 06:43:58 PM 33.6456 -83.7144 76° East 434 499 26,100 1,450 Climbing Atlanta Center
Thu 06:44:58 PM 33.6889 -83.5644 71° East 455 524 27,100 1,450 Climbing Atlanta Center
Thu 06:45:58 PM 33.7467 -83.4267 63° Northeast 464 534 29,000 1,000 Climbing Atlanta Center
Thu 06:46:58 PM 33.8044 -83.2814 64° Northeast 464 534 29,100 900 Climbing Atlanta Center
Thu 06:47:58 PM 33.8578 -83.1558 63° Northeast 469 540 30,800 2,200 Climbing Atlanta Center
Thu 06:48:58 PM 33.9192 -82.9975 65° Northeast 469 540 33,500 2,300 Climbing Atlanta Center
Thu 06:49:58 PM 33.9744 -82.8614 64° Northeast 456 525 35,400 1,700 Climbing Atlanta Center
Thu 06:50:58 PM 34.0272 -82.7228 65° Northeast 456 525 36,900 1,200 Climbing Atlanta Center
Thu 06:51:58 PM 34.0758 -82.6017 64° Northeast 441 507 37,800 550 Climbing Atlanta Center
Thu 06:52:58 PM 34.1367 -82.4500 64° Northeast 446 513 38,000 100 Climbing Atlanta Center
Thu 06:53:58 PM 34.1911 -82.3086 65° Northeast 446 513 38,000  Level Atlanta Center
Thu 06:54:58 PM 34.2475 -82.1667 64° Northeast 446 513 38,000  Level Atlanta Center
Thu 06:55:58 PM 34.3100 -82.0344 60° Northeast 446 513 38,000  Level Atlanta Center
Thu 06:56:58 PM 34.3767 -81.9044 58° Northeast 446 513 38,000  Level Atlanta Center
Thu 06:57:58 PM 34.4411 -81.7744 59° Northeast 451 519 38,000 100 Level Atlanta Center
Thu 06:58:58 PM 34.5075 -81.6417 59° Northeast 451 519 38,200 500 Climbing Atlanta Center
Thu 06:59:58 PM 34.5736 -81.5058 59° Northeast 456 525 39,000 400 Climbing Atlanta Center
Thu 07:00:58 PM 34.6397 -81.3753 58° Northeast 456 525 39,000  Level Atlanta Center
Thu 07:01:58 PM 34.7058 -81.2442 58° Northeast 456 525 39,000  Level Atlanta Center
Thu 07:02:58 PM 34.7714 -81.1081 60° Northeast 456 525 39,000  Level Atlanta Center
Thu 07:03:58 PM 34.8369 -80.9692 60° Northeast 456 525 39,000  Level Atlanta Center
Thu 07:06:19 PM 34.9889 -80.6572 59° Northeast 461 531 39,000  Level Washington Center
Thu 07:07:19 PM 35.0481 -80.5367 59° Northeast 454 522 39,000  Level Washington Center
Thu 07:08:19 PM 35.1142 -80.3986 60° Northeast 454 522 39,000  Level Washington Center
Thu 07:09:17 PM 35.1781 -80.2625 60° Northeast 454 522 39,000  Level Washington Center
Thu 07:10:19 PM 35.2417 -80.1264 60° Northeast 459 528 39,000  Level Washington Center
Thu 07:11:20 PM 35.3139 -79.9828 58° Northeast 452 520 39,000  Level Washington Center
Thu 07:12:17 PM 35.3794 -79.8464 59° Northeast 447 514 39,000  Level Washington Center
Thu 07:13:17 PM 35.4403 -79.7144 60° Northeast 452 520 39,000 -793 Level Washington Center
Thu 07:14:18 PM 35.5053 -79.5800 59° Northeast 452 520 37,400 -1,672 Descending Washington Center
Thu 07:15:19 PM 35.5683 -79.4428 61° Northeast 457 526 35,600 -1,835 Descending Washington Center
Thu 07:16:19 PM 35.6311 -79.3028 61° Northeast 457 526 33,700 -1,361 Descending Washington Center
Thu 07:17:18 PM 35.6669 -79.1561 73° East 452 520 32,900 -908 Descending Washington Center
Thu 07:18:18 PM 35.7006 -79.0014 75° East 447 514 31,900 -942 Descending Washington Center
Thu 07:19:19 PM 35.7364 -78.8469 74° East 453 521 31,000 -958 Descending Washington Center
Thu 07:20:17 PM 35.7717 -78.6922 74° East 459 528 30,000 -1,109 Descending Washington Center
Thu 07:21:18 PM 35.8003 -78.5500 76° East 464 534 28,800 -1,587 Descending Washington Center
Thu 07:22:18 PM 35.8333 -78.3922 75° East 470 541 26,800 -1,884 Descending Washington Center
Thu 07:23:19 PM 35.8661 -78.2397 75° East 465 535 25,000 -1,613 Descending Washington Center
Thu 07:24:17 PM 35.8961 -78.0944 76° East 453 521 23,600 -1,261 Descending Washington Center
Thu 07:25:18 PM 35.9264 -77.9492 76° East 447 514 22,500 -1,033 Descending Washington Center
Thu 07:26:19 PM 35.9561 -77.8064 76° East 436 502 21,500 -756 Descending Washington Center
Thu 07:27:17 PM 35.9961 -77.6664 71° East 431 496 21,000 -252 Descending Washington Center
Thu 07:28:18 PM 36.0567 -77.5447 58° Northeast 421 484 21,000 -496 Level Washington Center
Thu 07:29:18 PM 36.1169 -77.4203 59° Northeast 416 479 20,000 -992 Descending Washington Center
Thu 07:30:19 PM 36.1711 -77.2978 61° Northeast 411 473 19,000 -1,008 Descending Washington Center
Thu 07:31:17 PM 36.2269 -77.1781 60° Northeast 406 467 18,000 -1,059 Descending Washington Center
Thu 07:32:18 PM 36.2892 -77.0428 60° Northeast 406 467 16,900 -1,033 Descending Washington Center
Thu 07:33:19 PM 36.3447 -76.9253 60° Northeast 401 461 15,900 -991 Descending Washington Center
Thu 07:34:07 PM 36.4000 -76.8383 52° Northeast 400 460 15,100 -1,642 Descending Washington Center
Thu 07:35:05 PM 36.4656 -76.7464 48° Northeast 386 444 13,000 -2,069 Descending Washington Center
Thu 07:36:03 PM 36.5208 -76.6386 57° Northeast 371 427 11,100 -1,726 Descending Washington Center
Thu 07:36:18 PM 36.5336 -76.6078 63° Northeast 378 435 10,900 -885 Descending Washington Center
Thu 07:37:04 PM 36.5717 -76.5333 58° Northeast 308 354 10,200 -984 Descending Washington Center
Thu 07:37:19 PM 36.5803 -76.5128 62° Northeast 350 403 9,900 -1,300 Descending Washington Center
Thu 07:38:04 PM 36.6142 -76.4433 59° Northeast 297 342 8,900 -1,300 Descending Washington Center
Thu 07:38:19 PM 36.6225 -76.4253 60° Northeast 312 359 8,600 -1,400 Descending Washington Center
Thu 07:39:04 PM 36.6564 -76.3608 57° Northeast 287 330 7,500 -1,400 Descending Washington Center
Thu 07:39:19 PM 36.6647 -76.3403 63° Northeast 291 335 7,200 -1,500 Descending Washington Center
Thu 07:40:08 PM 36.7028 -76.2836 50° Northeast 283 326 5,900 -1,059 Descending Washington Center
Thu 07:41:18 PM 36.7719 -76.2142 39° Northeast 265 305 5,100 -454 Descending Washington Center
Thu 07:42:07 PM 36.8117 -76.1756 38° Northeast 226 260 5,000 -1,038 Descending Washington Center
Thu 07:43:02 PM 36.8661 -76.1372 29° Northeast 264 304 3,300 -1,855 Descending Washington Center

Login

Don't have an account? Register now (free) for customized features, flight alerts, and more!